createdAt,value
2017-03-21T00:00:05.633Z,61.30
2017-03-21T00:01:03.968Z,61.50
2017-03-21T00:02:02.221Z,61.40
2017-03-21T00:03:00.500Z,61.40
2017-03-21T00:03:58.787Z,61.40
2017-03-21T00:04:57.041Z,61.40
2017-03-21T00:05:55.293Z,61.60
2017-03-21T00:06:53.653Z,61.60
2017-03-21T00:07:51.930Z,61.80
2017-03-21T00:08:50.215Z,61.70
2017-03-21T00:09:48.483Z,61.90
2017-03-21T00:10:46.783Z,61.90
2017-03-21T00:11:45.836Z,62.00
2017-03-21T00:12:44.132Z,62.00
2017-03-21T00:13:43.145Z,61.90
2017-03-21T00:14:41.477Z,61.90
2017-03-21T00:15:39.748Z,62.10
2017-03-21T00:16:38.013Z,62.20
2017-03-21T00:17:36.261Z,62.40
2017-03-21T00:18:34.585Z,62.40
2017-03-21T00:19:32.814Z,62.40
2017-03-21T00:20:31.832Z,62.30
2017-03-21T00:21:30.111Z,62.80
2017-03-21T00:22:28.383Z,62.20
2017-03-21T00:23:26.638Z,62.20
2017-03-21T00:24:24.887Z,62.20
2017-03-21T00:25:23.152Z,62.20
2017-03-21T00:26:21.392Z,62.20
2017-03-21T00:27:19.701Z,61.90
2017-03-21T00:28:17.958Z,61.80
2017-03-21T00:29:17.583Z,61.90
2017-03-21T00:30:15.852Z,61.90
2017-03-21T00:31:14.094Z,61.80
2017-03-21T00:32:12.346Z,61.90
2017-03-21T00:33:10.609Z,61.90
2017-03-21T00:34:08.880Z,61.80
2017-03-21T00:35:11.969Z,61.80
2017-03-21T00:36:10.904Z,61.80
2017-03-21T00:37:09.125Z,61.70
2017-03-21T00:38:07.328Z,61.60
2017-03-21T00:39:05.629Z,61.60
2017-03-21T00:40:04.641Z,61.60
2017-03-21T00:41:02.893Z,61.70
2017-03-21T00:42:01.125Z,61.90
2017-03-21T00:43:00.109Z,62.00
2017-03-21T00:43:58.462Z,61.90
2017-03-21T00:44:56.702Z,61.90
2017-03-21T00:45:54.996Z,62.20
2017-03-21T00:46:53.214Z,62.20
2017-03-21T00:47:51.454Z,62.10
2017-03-21T00:48:49.718Z,62.10
2017-03-21T00:49:48.678Z,62.90
2017-03-21T00:50:46.923Z,62.20
2017-03-21T00:51:45.150Z,62.10
2017-03-21T00:52:43.401Z,62.20
2017-03-21T00:53:41.637Z,62.40
2017-03-21T00:54:39.897Z,62.60
2017-03-21T00:55:38.117Z,62.50
2017-03-21T00:56:36.403Z,62.60
2017-03-21T00:57:34.669Z,62.60
2017-03-21T00:58:32.923Z,62.50
2017-03-21T00:59:31.170Z,62.40
2017-03-21T01:00:30.155Z,62.40
2017-03-21T01:01:28.436Z,62.60
2017-03-21T01:02:26.702Z,62.80
2017-03-21T01:03:25.030Z,63.10
2017-03-21T01:04:23.362Z,62.80
2017-03-21T01:05:22.370Z,62.80
2017-03-21T01:06:20.632Z,62.80
2017-03-21T01:07:18.957Z,62.90
2017-03-21T01:08:17.227Z,62.90
2017-03-21T01:09:15.532Z,63.20
2017-03-21T01:10:13.852Z,63.40
2017-03-21T01:11:12.086Z,63.10
2017-03-21T01:12:11.085Z,63.20
2017-03-21T01:13:09.354Z,63.40
2017-03-21T01:14:07.627Z,63.60
2017-03-21T01:15:05.881Z,63.60
2017-03-21T01:16:04.109Z,63.50
2017-03-21T01:17:02.373Z,63.40
2017-03-21T01:18:00.618Z,63.40
2017-03-21T01:18:58.850Z,63.70
2017-03-21T01:19:57.096Z,63.60
2017-03-21T01:20:55.422Z,63.70
2017-03-21T01:21:53.645Z,63.70
2017-03-21T01:22:51.867Z,63.80
2017-03-21T01:23:50.187Z,64.00
2017-03-21T01:24:48.444Z,64.10
2017-03-21T01:25:46.747Z,64.10
2017-03-21T01:26:44.994Z,64.20
2017-03-21T01:27:43.249Z,64.30
2017-03-21T01:28:41.589Z,64.50
2017-03-21T01:29:39.846Z,64.50
2017-03-21T01:30:38.130Z,64.50
2017-03-21T01:31:36.397Z,64.70
2017-03-21T01:32:34.641Z,64.90
2017-03-21T01:33:32.888Z,64.90
2017-03-21T01:34:31.157Z,65.00
2017-03-21T01:35:29.425Z,65.10
2017-03-21T01:36:27.693Z,65.00
2017-03-21T01:37:26.008Z,65.00
2017-03-21T01:38:24.273Z,65.00
2017-03-21T01:39:22.573Z,65.40
2017-03-21T01:40:20.849Z,65.40
2017-03-21T01:41:19.161Z,65.40
2017-03-21T01:42:17.417Z,65.50
2017-03-21T01:43:15.735Z,65.50
2017-03-21T01:44:14.038Z,65.70
2017-03-21T01:45:13.046Z,65.70
2017-03-21T01:46:11.336Z,66.50
2017-03-21T01:47:09.587Z,66.00
2017-03-21T01:48:07.836Z,65.90
2017-03-21T01:49:06.137Z,66.00
2017-03-21T01:50:04.454Z,66.10
2017-03-21T01:51:04.877Z,66.50
2017-03-21T01:52:03.178Z,66.30
2017-03-21T01:53:01.442Z,66.30
2017-03-21T01:53:59.701Z,66.70
2017-03-21T01:54:58.049Z,66.50
2017-03-21T01:55:56.310Z,66.40
2017-03-21T01:56:54.530Z,66.40
2017-03-21T01:57:52.794Z,66.40
2017-03-21T01:58:51.039Z,66.30
2017-03-21T01:59:49.342Z,66.40
2017-03-21T02:00:47.653Z,66.50
2017-03-21T02:01:46.613Z,66.50
2017-03-21T02:02:44.903Z,66.50
2017-03-21T02:03:43.891Z,66.40
2017-03-21T02:04:42.243Z,66.30
2017-03-21T02:05:40.503Z,66.50
2017-03-21T02:06:38.822Z,66.40
2017-03-21T02:07:37.049Z,66.40
2017-03-21T02:08:35.329Z,66.50
2017-03-21T02:09:33.633Z,66.40
2017-03-21T02:10:31.993Z,66.50
2017-03-21T02:11:30.237Z,66.60
2017-03-21T02:12:28.518Z,66.70
2017-03-21T02:13:26.789Z,66.80
2017-03-21T02:14:25.013Z,66.90
2017-03-21T02:15:23.318Z,66.90
2017-03-21T02:16:21.585Z,66.90
2017-03-21T02:17:19.826Z,66.90
2017-03-21T02:18:18.105Z,66.90
2017-03-21T02:19:16.367Z,66.90
2017-03-21T02:20:13.882Z,66.90
2017-03-21T02:21:12.166Z,67.30
2017-03-21T02:22:11.230Z,67.30
2017-03-21T02:23:09.493Z,67.20
2017-03-21T02:24:07.757Z,67.20
2017-03-21T02:25:06.080Z,67.20
2017-03-21T02:26:04.326Z,67.40
2017-03-21T02:27:02.626Z,67.50
2017-03-21T02:28:00.966Z,67.40
2017-03-21T02:28:59.198Z,67.50
2017-03-21T02:29:57.459Z,67.60
2017-03-21T02:30:55.688Z,67.50
2017-03-21T02:31:54.014Z,67.50
2017-03-21T02:32:52.246Z,67.70
2017-03-21T02:33:50.528Z,67.80
2017-03-21T02:34:48.016Z,67.90
2017-03-21T02:35:46.296Z,67.80
2017-03-21T02:36:44.584Z,67.80
2017-03-21T02:37:42.822Z,68.00
2017-03-21T02:38:41.064Z,67.80
2017-03-21T02:39:39.297Z,67.70
2017-03-21T02:40:37.521Z,67.90
2017-03-21T02:41:35.765Z,67.80
2017-03-21T02:42:34.010Z,67.80
2017-03-21T02:43:32.246Z,67.80
2017-03-21T02:44:30.506Z,67.80
2017-03-21T02:45:28.736Z,67.80
2017-03-21T02:46:27.717Z,67.80
2017-03-21T02:47:25.962Z,67.60
2017-03-21T02:48:24.970Z,68.10
2017-03-21T02:49:23.216Z,67.60
2017-03-21T02:50:21.466Z,67.50
2017-03-21T02:51:19.713Z,67.60
2017-03-21T02:52:18.711Z,67.40
2017-03-21T02:53:17.042Z,67.20
2017-03-21T02:54:15.309Z,67.30
2017-03-21T02:55:13.581Z,67.20
2017-03-21T02:56:11.869Z,67.00
2017-03-21T02:57:10.113Z,67.60
2017-03-21T02:58:08.379Z,67.00
2017-03-21T02:59:07.422Z,66.90
2017-03-21T03:00:06.478Z,66.80
2017-03-21T03:01:04.755Z,66.80
2017-03-21T03:02:03.024Z,66.60
2017-03-21T03:03:01.261Z,66.50
2017-03-21T03:03:59.494Z,66.50
2017-03-21T03:04:57.779Z,66.50
2017-03-21T03:05:56.048Z,66.60
2017-03-21T03:06:54.335Z,66.50
2017-03-21T03:07:52.594Z,66.40
2017-03-21T03:08:50.849Z,66.30
2017-03-21T03:09:49.128Z,66.30
2017-03-21T03:10:47.389Z,66.50
2017-03-21T03:11:45.657Z,66.50
2017-03-21T03:12:43.898Z,66.50
2017-03-21T03:13:42.123Z,67.10
2017-03-21T03:14:40.349Z,66.30
2017-03-21T03:15:38.617Z,66.30
2017-03-21T03:16:36.882Z,66.30
2017-03-21T03:17:35.154Z,66.20
2017-03-21T03:18:33.421Z,66.20
2017-03-21T03:19:31.673Z,66.10
2017-03-21T03:20:29.965Z,66.10
2017-03-21T03:21:28.221Z,66.00
2017-03-21T03:22:26.486Z,66.00
2017-03-21T03:23:24.741Z,66.10
2017-03-21T03:24:23.755Z,66.00
2017-03-21T03:25:22.029Z,66.10
2017-03-21T03:26:21.026Z,66.10
2017-03-21T03:27:19.274Z,66.00
2017-03-21T03:28:17.567Z,65.90
2017-03-21T03:29:16.577Z,66.00
2017-03-21T03:30:14.893Z,66.00
2017-03-21T03:31:13.185Z,66.00
2017-03-21T03:32:11.477Z,66.00
2017-03-21T03:33:09.754Z,66.20
2017-03-21T03:34:08.025Z,66.20
2017-03-21T03:35:06.287Z,66.10
2017-03-21T03:36:04.549Z,66.10
2017-03-21T03:37:02.814Z,66.00
2017-03-21T03:38:01.061Z,65.90
2017-03-21T03:38:59.378Z,66.00
2017-03-21T03:39:57.664Z,65.90
2017-03-21T03:40:55.917Z,66.00
2017-03-21T03:41:54.181Z,65.90
2017-03-21T03:42:52.541Z,65.90
2017-03-21T03:43:50.806Z,65.90
2017-03-21T03:44:49.090Z,65.90
2017-03-21T03:45:47.424Z,66.00
2017-03-21T03:46:45.701Z,66.10
2017-03-21T03:47:44.702Z,66.00
2017-03-21T03:48:42.975Z,66.00
2017-03-21T03:49:41.286Z,66.00
2017-03-21T03:50:39.537Z,65.90
2017-03-21T03:51:37.845Z,65.90
2017-03-21T03:52:36.134Z,65.90
2017-03-21T03:53:35.969Z,65.90
2017-03-21T03:54:41.325Z,65.90
2017-03-21T03:55:39.666Z,66.00
2017-03-21T03:56:37.984Z,66.00
2017-03-21T03:57:36.250Z,66.00
2017-03-21T03:58:34.534Z,66.00
2017-03-21T03:59:32.793Z,66.00
2017-03-21T04:00:31.125Z,66.10
2017-03-21T04:01:29.432Z,66.10
2017-03-21T04:02:27.741Z,66.00
2017-03-21T04:03:26.005Z,66.00
2017-03-21T04:04:24.298Z,66.10
2017-03-21T04:05:22.561Z,66.10
2017-03-21T04:06:20.864Z,66.00
2017-03-21T04:07:19.192Z,66.00
2017-03-21T04:08:18.193Z,66.00
2017-03-21T04:09:16.435Z,66.00
2017-03-21T04:10:14.722Z,66.00
2017-03-21T04:11:13.049Z,66.00
2017-03-21T04:12:11.318Z,66.00
2017-03-21T04:13:09.606Z,66.00
2017-03-21T04:14:07.939Z,66.20
2017-03-21T04:15:06.994Z,66.10
2017-03-21T04:16:05.249Z,66.10
2017-03-21T04:17:03.509Z,66.00
2017-03-21T04:18:01.770Z,66.00
2017-03-21T04:19:00.022Z,66.10
2017-03-21T04:19:58.314Z,66.10
2017-03-21T04:20:56.716Z,66.10
2017-03-21T04:21:55.741Z,66.20
2017-03-21T04:22:54.042Z,66.00
2017-03-21T04:23:52.306Z,66.00
2017-03-21T04:24:50.585Z,66.00
2017-03-21T04:25:48.852Z,66.00
2017-03-21T04:26:47.165Z,66.20
2017-03-21T04:27:45.582Z,66.20
2017-03-21T04:28:43.998Z,66.20
2017-03-21T04:29:42.565Z,66.10
2017-03-21T04:30:40.849Z,66.30
2017-03-21T04:31:39.129Z,66.30
2017-03-21T04:32:37.366Z,66.30
2017-03-21T04:33:35.616Z,66.30
2017-03-21T04:34:34.625Z,66.20
2017-03-21T04:35:32.877Z,66.30
2017-03-21T04:36:31.132Z,66.30
2017-03-21T04:37:29.428Z,66.20
2017-03-21T04:38:27.706Z,66.30
2017-03-21T04:39:25.950Z,66.20
2017-03-21T04:40:24.197Z,66.20
2017-03-21T04:41:22.481Z,66.10
2017-03-21T04:42:20.745Z,66.30
2017-03-21T04:43:19.746Z,66.30
2017-03-21T04:44:18.001Z,66.30
2017-03-21T04:45:16.262Z,66.30
2017-03-21T04:46:14.533Z,66.30
2017-03-21T04:47:12.799Z,66.20
2017-03-21T04:48:11.094Z,66.30
2017-03-21T04:49:09.406Z,66.20
2017-03-21T04:50:07.709Z,66.40
2017-03-21T04:51:05.958Z,66.20
2017-03-21T04:52:04.229Z,66.50
2017-03-21T04:53:02.521Z,66.30
2017-03-21T04:54:00.773Z,66.20
2017-03-21T04:54:59.042Z,66.20
2017-03-21T04:55:57.305Z,66.20
2017-03-21T04:56:55.558Z,66.30
2017-03-21T04:57:53.808Z,66.20
2017-03-21T04:58:52.082Z,66.20
2017-03-21T04:59:50.340Z,66.40
2017-03-21T05:00:48.629Z,66.10
2017-03-21T05:01:46.917Z,66.20
2017-03-21T05:02:45.169Z,66.10
2017-03-21T05:03:43.422Z,66.20
2017-03-21T05:04:42.392Z,66.30
2017-03-21T05:05:40.645Z,66.30
2017-03-21T05:06:38.931Z,66.30
2017-03-21T05:07:37.907Z,66.20
2017-03-21T05:08:36.158Z,66.20
2017-03-21T05:09:34.402Z,66.20
2017-03-21T05:10:32.645Z,66.30
2017-03-21T05:11:30.899Z,66.30
2017-03-21T05:12:29.186Z,66.20
2017-03-21T05:13:27.443Z,66.10
2017-03-21T05:14:25.715Z,66.10
2017-03-21T05:15:23.970Z,66.20
2017-03-21T05:16:22.212Z,66.20
2017-03-21T05:17:20.457Z,66.40
2017-03-21T05:18:18.727Z,66.40
2017-03-21T05:19:17.014Z,66.20
2017-03-21T05:20:15.257Z,66.20
2017-03-21T05:21:13.521Z,66.30
2017-03-21T05:22:11.789Z,66.30
2017-03-21T05:23:10.037Z,66.30
2017-03-21T05:24:08.334Z,66.30
2017-03-21T05:25:06.633Z,66.30
2017-03-21T05:26:04.890Z,66.30
2017-03-21T05:27:03.162Z,66.20
2017-03-21T05:28:01.405Z,66.20
2017-03-21T05:28:59.679Z,66.60
2017-03-21T05:29:57.946Z,66.30
2017-03-21T05:30:56.203Z,66.20
2017-03-21T05:31:54.455Z,66.20
2017-03-21T05:32:52.706Z,66.20
2017-03-21T05:33:51.009Z,66.30
2017-03-21T05:34:49.299Z,66.30
2017-03-21T05:35:47.584Z,66.30
2017-03-21T05:36:45.817Z,66.30
2017-03-21T05:37:44.065Z,66.60
2017-03-21T05:38:42.349Z,66.50
2017-03-21T05:39:40.609Z,66.40
2017-03-21T05:40:38.844Z,66.40
2017-03-21T05:41:38.182Z,66.60
2017-03-21T05:42:36.475Z,66.40
2017-03-21T05:43:34.736Z,66.60
2017-03-21T05:44:32.982Z,66.60
2017-03-21T05:45:31.272Z,66.60
2017-03-21T05:46:29.513Z,66.60
2017-03-21T05:47:27.808Z,66.80
2017-03-21T05:48:26.055Z,66.80
2017-03-21T05:49:24.334Z,66.80
2017-03-21T05:50:22.593Z,66.70
2017-03-21T05:51:20.929Z,67.30
2017-03-21T05:52:19.186Z,66.50
2017-03-21T05:53:17.462Z,66.60
2017-03-21T05:54:15.726Z,66.60
2017-03-21T05:55:14.017Z,66.60
2017-03-21T05:56:12.254Z,66.50
2017-03-21T05:57:10.517Z,66.60
2017-03-21T05:58:09.505Z,66.70
2017-03-21T05:59:07.029Z,66.60
2017-03-21T06:00:05.328Z,66.80
2017-03-21T06:01:03.580Z,66.90
2017-03-21T06:02:02.581Z,67.30
2017-03-21T06:03:00.820Z,67.70
2017-03-21T06:03:59.101Z,67.90
2017-03-21T06:04:58.104Z,68.10
2017-03-21T06:05:56.345Z,68.30
2017-03-21T06:06:54.592Z,68.50
2017-03-21T06:07:52.878Z,68.70
2017-03-21T06:08:51.917Z,69.30
2017-03-21T06:09:50.193Z,69.40
2017-03-21T06:10:48.473Z,69.50
2017-03-21T06:11:46.724Z,69.60
2017-03-21T06:12:44.995Z,70.00
2017-03-21T06:13:43.233Z,70.40
2017-03-21T06:14:41.468Z,70.40
2017-03-21T06:15:39.718Z,70.90
2017-03-21T06:16:37.988Z,71.80
2017-03-21T06:17:36.606Z,71.50
2017-03-21T06:18:34.867Z,71.90
2017-03-21T06:19:33.166Z,72.00
2017-03-21T06:20:31.412Z,72.20
2017-03-21T06:21:29.653Z,72.40
2017-03-21T06:22:27.917Z,72.70
2017-03-21T06:23:26.185Z,72.80
2017-03-21T06:24:24.472Z,73.10
2017-03-21T06:25:22.721Z,73.40
2017-03-21T06:26:20.988Z,73.90
2017-03-21T06:27:19.225Z,74.10
2017-03-21T06:28:17.518Z,74.80
2017-03-21T06:29:15.758Z,74.50
2017-03-21T06:30:14.029Z,74.60
2017-03-21T06:31:12.309Z,74.60
2017-03-21T06:32:10.552Z,74.80
2017-03-21T06:33:09.541Z,74.80
2017-03-21T06:34:07.817Z,75.00
2017-03-21T06:35:06.074Z,74.50
2017-03-21T06:36:04.305Z,75.10
2017-03-21T06:37:02.557Z,75.20
2017-03-21T06:38:00.801Z,75.20
2017-03-21T06:38:59.058Z,75.20
2017-03-21T06:39:57.318Z,76.10
2017-03-21T06:40:55.577Z,75.70
2017-03-21T06:41:53.825Z,75.70
2017-03-21T06:42:52.094Z,76.00
2017-03-21T06:43:50.385Z,76.80
2017-03-21T06:44:48.661Z,76.40
2017-03-21T06:45:46.929Z,76.50
2017-03-21T06:46:45.189Z,76.50
2017-03-21T06:47:43.449Z,76.80
2017-03-21T06:48:41.706Z,76.90
2017-03-21T06:49:39.953Z,76.90
2017-03-21T06:50:38.238Z,76.60
2017-03-21T06:51:36.536Z,76.90
2017-03-21T06:52:34.798Z,76.80
2017-03-21T06:53:33.070Z,77.20
2017-03-21T06:54:31.353Z,78.00
2017-03-21T06:55:29.596Z,77.10
2017-03-21T06:56:27.858Z,77.00
2017-03-21T06:57:26.150Z,77.00
2017-03-21T06:58:24.399Z,76.90
2017-03-21T06:59:22.637Z,77.00
2017-03-21T07:00:20.930Z,76.90
2017-03-21T07:01:19.189Z,76.70
2017-03-21T07:02:17.467Z,76.70
2017-03-21T07:03:15.741Z,76.60
2017-03-21T07:04:13.987Z,76.60
2017-03-21T07:05:12.265Z,76.70
2017-03-21T07:06:10.543Z,76.60
2017-03-21T07:07:08.792Z,76.40
2017-03-21T07:08:07.061Z,76.30
2017-03-21T07:09:05.333Z,76.30
2017-03-21T07:10:03.797Z,76.30
2017-03-21T07:11:02.077Z,76.10
2017-03-21T07:12:00.352Z,76.20
2017-03-21T07:12:59.338Z,76.30
2017-03-21T07:13:57.601Z,76.00
2017-03-21T07:14:55.888Z,75.90
2017-03-21T07:15:55.213Z,75.80
2017-03-21T07:16:53.941Z,75.70
2017-03-21T07:17:52.196Z,75.40
2017-03-21T07:18:50.468Z,74.90
2017-03-21T07:19:48.747Z,74.80
2017-03-21T07:20:47.145Z,74.90
2017-03-21T07:21:45.408Z,75.00
2017-03-21T07:22:43.666Z,75.00
2017-03-21T07:23:42.678Z,75.00
2017-03-21T07:24:40.955Z,75.00
2017-03-21T07:25:39.216Z,75.20
2017-03-21T07:26:37.497Z,75.80
2017-03-21T07:27:35.741Z,75.70
2017-03-21T07:28:33.985Z,76.10
2017-03-21T07:29:32.226Z,76.30
2017-03-21T07:30:30.584Z,76.90
2017-03-21T07:31:28.854Z,77.60
2017-03-21T07:32:27.139Z,78.00
2017-03-21T07:33:25.385Z,78.20
2017-03-21T07:34:23.624Z,78.50
2017-03-21T07:35:21.904Z,78.70
2017-03-21T07:36:20.185Z,78.90
2017-03-21T07:37:18.439Z,79.50
2017-03-21T07:38:16.753Z,79.60
2017-03-21T07:39:15.002Z,79.70
2017-03-21T07:40:14.074Z,79.50
2017-03-21T07:41:12.401Z,80.00
2017-03-21T07:42:10.658Z,80.40
2017-03-21T07:43:08.913Z,80.10
2017-03-21T07:44:07.901Z,80.40
2017-03-21T07:45:06.157Z,80.70
2017-03-21T07:46:04.396Z,80.70
2017-03-21T07:47:02.641Z,80.90
2017-03-21T07:48:00.879Z,81.00
2017-03-21T07:48:59.121Z,81.00
2017-03-21T07:49:57.650Z,81.00
2017-03-21T07:50:55.924Z,80.80
2017-03-21T07:51:54.174Z,80.70
2017-03-21T07:52:52.437Z,80.80
2017-03-21T07:53:50.700Z,80.90
2017-03-21T07:54:48.938Z,80.90
2017-03-21T07:55:47.242Z,81.00
2017-03-21T07:56:45.486Z,81.00
2017-03-21T07:57:43.762Z,80.40
2017-03-21T07:58:42.018Z,80.30
2017-03-21T07:59:40.250Z,80.70
2017-03-21T08:00:38.589Z,81.00
2017-03-21T08:01:36.853Z,80.80
2017-03-21T08:02:35.201Z,81.20
2017-03-21T08:03:33.494Z,80.40
2017-03-21T08:04:31.851Z,79.90
2017-03-21T08:05:30.837Z,79.80
2017-03-21T08:06:29.085Z,79.80
2017-03-21T08:07:28.113Z,79.40
2017-03-21T08:08:27.103Z,79.00
2017-03-21T08:09:25.350Z,79.00
2017-03-21T08:10:23.634Z,79.00
2017-03-21T08:11:21.909Z,80.10
2017-03-21T08:12:20.161Z,79.20
2017-03-21T08:13:18.432Z,79.20
2017-03-21T08:14:16.709Z,78.90
2017-03-21T08:15:14.968Z,78.80
2017-03-21T08:16:13.237Z,79.00
2017-03-21T08:17:11.500Z,79.00
2017-03-21T08:18:09.741Z,79.40
2017-03-21T08:19:08.028Z,78.60
2017-03-21T08:20:06.336Z,78.70
2017-03-21T08:21:04.756Z,77.90
2017-03-21T08:22:03.027Z,78.00
2017-03-21T08:23:01.294Z,78.00
2017-03-21T08:23:59.594Z,78.20
2017-03-21T08:24:57.885Z,77.20
2017-03-21T08:25:56.124Z,76.80
2017-03-21T08:26:54.370Z,76.80
2017-03-21T08:27:52.616Z,76.60
2017-03-21T08:28:51.639Z,74.90
2017-03-21T08:29:49.903Z,74.70
2017-03-21T08:30:48.165Z,74.90
2017-03-21T08:31:46.417Z,74.80
2017-03-21T08:32:44.683Z,74.90
2017-03-21T08:33:43.001Z,75.00
2017-03-21T08:34:41.246Z,75.00
2017-03-21T08:35:39.505Z,74.60
2017-03-21T08:36:37.800Z,74.50
2017-03-21T08:37:36.072Z,74.10
2017-03-21T08:38:34.339Z,74.20
2017-03-21T08:39:32.601Z,74.40
2017-03-21T08:40:30.865Z,74.40
2017-03-21T08:41:29.165Z,74.10
2017-03-21T08:42:27.432Z,73.80
2017-03-21T08:43:25.698Z,73.60
2017-03-21T08:44:23.925Z,73.20
2017-03-21T08:45:22.188Z,73.00
2017-03-21T08:46:20.424Z,73.10
2017-03-21T08:47:18.676Z,72.90
2017-03-21T08:48:17.669Z,73.10
2017-03-21T08:49:15.933Z,73.80
2017-03-21T08:50:14.175Z,73.30
2017-03-21T08:51:12.477Z,73.60
2017-03-21T08:52:10.737Z,73.80
2017-03-21T08:53:08.986Z,73.90
2017-03-21T08:54:07.312Z,74.20
2017-03-21T08:55:05.612Z,74.30
2017-03-21T08:56:04.665Z,74.30
2017-03-21T08:57:02.921Z,74.10
2017-03-21T08:58:01.179Z,74.00
2017-03-21T08:58:59.473Z,73.80
2017-03-21T08:59:57.737Z,72.70
2017-03-21T09:00:55.985Z,72.70
2017-03-21T09:01:54.258Z,72.90
2017-03-21T09:02:52.525Z,72.70
2017-03-21T09:03:50.769Z,72.70
2017-03-21T09:04:49.038Z,72.60
2017-03-21T09:05:47.321Z,72.80
2017-03-21T09:06:45.597Z,72.50
2017-03-21T09:07:43.849Z,72.40
2017-03-21T09:08:42.182Z,72.20
2017-03-21T09:09:40.433Z,72.20
2017-03-21T09:10:38.676Z,72.40
2017-03-21T09:11:37.709Z,72.10
2017-03-21T09:12:35.953Z,72.20
2017-03-21T09:13:34.217Z,72.30
2017-03-21T09:14:32.458Z,72.00
2017-03-21T09:15:31.605Z,72.00
2017-03-21T09:16:30.157Z,71.70
2017-03-21T09:17:28.441Z,71.80
2017-03-21T09:18:26.701Z,71.90
2017-03-21T09:19:24.957Z,72.00
2017-03-21T09:20:23.233Z,71.90
2017-03-21T09:21:21.528Z,71.90
2017-03-21T09:22:19.816Z,71.70
2017-03-21T09:23:18.889Z,71.80
2017-03-21T09:24:17.156Z,71.70
2017-03-21T09:25:15.432Z,71.80
2017-03-21T09:26:13.672Z,71.60
2017-03-21T09:27:11.918Z,71.40
2017-03-21T09:28:10.185Z,71.20
2017-03-21T09:29:08.482Z,71.30
2017-03-21T09:30:06.804Z,71.40
2017-03-21T09:31:05.060Z,71.40
2017-03-21T09:32:03.317Z,71.30
2017-03-21T09:33:01.588Z,71.30
2017-03-21T09:33:59.838Z,71.60
2017-03-21T09:34:58.142Z,71.70
2017-03-21T09:35:56.564Z,71.50
2017-03-21T09:36:54.809Z,71.60
2017-03-21T09:37:53.075Z,71.30
2017-03-21T09:38:51.370Z,70.90
2017-03-21T09:39:50.374Z,70.80
2017-03-21T09:40:48.649Z,70.90
2017-03-21T09:41:47.620Z,70.90
2017-03-21T09:42:45.878Z,71.20
2017-03-21T09:43:44.859Z,71.30
2017-03-21T09:44:43.101Z,71.20
2017-03-21T09:45:41.346Z,71.00
2017-03-21T09:46:39.616Z,71.10
2017-03-21T09:47:38.682Z,71.30
2017-03-21T09:48:36.949Z,71.50
2017-03-21T09:49:35.179Z,71.50
2017-03-21T09:50:33.424Z,71.30
2017-03-21T09:51:31.681Z,71.20
2017-03-21T09:52:29.945Z,71.50
2017-03-21T09:53:28.205Z,71.10
2017-03-21T09:54:26.463Z,71.10
2017-03-21T09:55:24.704Z,71.00
2017-03-21T09:56:22.953Z,70.90
2017-03-21T09:57:21.288Z,70.80
2017-03-21T09:58:19.568Z,70.70
2017-03-21T09:59:17.924Z,70.10
2017-03-21T10:00:16.188Z,69.90
2017-03-21T10:01:15.177Z,69.80
2017-03-21T10:02:13.425Z,69.80
2017-03-21T10:03:11.697Z,70.10
2017-03-21T10:04:13.717Z,69.90
2017-03-21T10:05:11.980Z,69.80
2017-03-21T10:06:10.255Z,69.80
2017-03-21T10:07:08.564Z,69.80
2017-03-21T10:08:07.672Z,69.70
2017-03-21T10:09:05.975Z,69.20
2017-03-21T10:10:04.308Z,69.00
2017-03-21T10:11:02.600Z,69.00
2017-03-21T10:12:00.900Z,68.80
2017-03-21T10:12:59.132Z,68.10
2017-03-21T10:13:57.396Z,68.30
2017-03-21T10:14:55.656Z,68.60
2017-03-21T10:15:53.964Z,68.30
2017-03-21T10:16:52.216Z,68.20
2017-03-21T10:17:50.561Z,68.10
2017-03-21T10:18:48.865Z,67.70
2017-03-21T10:19:47.129Z,66.80
2017-03-21T10:20:45.421Z,66.70
2017-03-21T10:21:44.492Z,66.10
2017-03-21T10:22:42.738Z,66.00
2017-03-21T10:23:40.982Z,65.90
2017-03-21T10:24:39.248Z,65.90
2017-03-21T10:25:37.547Z,66.10
2017-03-21T10:26:35.808Z,66.00
2017-03-21T10:27:34.200Z,65.30
2017-03-21T10:28:33.200Z,65.00
2017-03-21T10:29:31.460Z,64.80
2017-03-21T10:30:29.836Z,65.20
2017-03-21T10:31:28.097Z,65.70
2017-03-21T10:32:26.364Z,65.40
2017-03-21T10:33:24.949Z,65.60
2017-03-21T10:34:23.229Z,65.90
2017-03-21T10:35:21.469Z,65.50
2017-03-21T10:36:19.844Z,65.50
2017-03-21T10:37:18.105Z,65.30
2017-03-21T10:38:16.367Z,65.80
2017-03-21T10:39:15.820Z,65.20
2017-03-21T10:40:14.117Z,65.60
2017-03-21T10:41:12.370Z,65.70
2017-03-21T10:42:11.025Z,65.80
2017-03-21T10:43:09.273Z,65.80
2017-03-21T10:44:08.827Z,65.60
2017-03-21T10:45:07.889Z,65.50
2017-03-21T10:46:06.220Z,65.30
2017-03-21T10:47:04.461Z,65.50
2017-03-21T10:48:02.785Z,65.40
2017-03-21T10:49:02.359Z,65.60
2017-03-21T10:50:00.621Z,65.70
2017-03-21T10:50:58.956Z,65.20
2017-03-21T10:51:57.941Z,64.90
2017-03-21T10:52:56.183Z,64.50
2017-03-21T10:53:54.445Z,64.20
2017-03-21T10:54:52.689Z,64.20
2017-03-21T10:55:50.933Z,64.00
2017-03-21T10:56:49.241Z,64.20
2017-03-21T10:57:47.488Z,64.70
2017-03-21T10:58:45.744Z,64.60
2017-03-21T10:59:44.002Z,64.70
2017-03-21T11:00:42.284Z,64.10
2017-03-21T11:01:40.624Z,64.00
2017-03-21T11:02:38.879Z,64.10
2017-03-21T11:03:37.137Z,64.40
2017-03-21T11:04:36.205Z,64.60
2017-03-21T11:05:35.205Z,65.00
2017-03-21T11:06:33.460Z,65.00
2017-03-21T11:07:31.708Z,64.70
2017-03-21T11:08:29.960Z,64.50
2017-03-21T11:09:28.429Z,64.30
2017-03-21T11:10:26.690Z,64.70
2017-03-21T11:11:25.026Z,65.10
2017-03-21T11:12:23.249Z,65.60
2017-03-21T11:13:21.485Z,65.10
2017-03-21T11:14:19.784Z,65.10
2017-03-21T11:15:18.037Z,65.00
2017-03-21T11:16:16.285Z,65.00
2017-03-21T11:17:14.560Z,65.10
2017-03-21T11:18:12.793Z,65.40
2017-03-21T11:19:11.117Z,65.30
2017-03-21T11:20:10.140Z,65.30
2017-03-21T11:21:08.412Z,65.40
2017-03-21T11:22:06.651Z,65.60
2017-03-21T11:23:05.660Z,65.40
2017-03-21T11:24:03.964Z,65.20
2017-03-21T11:25:02.254Z,65.20
2017-03-21T11:26:00.556Z,65.10
2017-03-21T11:26:58.801Z,65.30
2017-03-21T11:27:57.845Z,64.80
2017-03-21T11:28:56.129Z,65.00
2017-03-21T11:29:54.369Z,65.20
2017-03-21T11:30:52.638Z,65.50
2017-03-21T11:31:50.976Z,65.50
2017-03-21T11:32:49.226Z,65.20
2017-03-21T11:33:47.490Z,65.30
2017-03-21T11:34:45.757Z,65.40
2017-03-21T11:35:43.997Z,65.30
2017-03-21T11:36:42.245Z,65.10
2017-03-21T11:37:40.552Z,65.10
2017-03-21T11:38:38.873Z,65.00
2017-03-21T11:39:37.137Z,65.20
2017-03-21T11:40:35.440Z,65.40
2017-03-21T11:41:34.449Z,65.60
2017-03-21T11:42:32.697Z,65.50
2017-03-21T11:43:30.988Z,65.10
2017-03-21T11:44:29.226Z,65.00
2017-03-21T11:45:27.477Z,64.90
2017-03-21T11:46:25.720Z,65.10
2017-03-21T11:47:24.022Z,65.10
2017-03-21T11:48:22.248Z,64.90
2017-03-21T11:49:20.505Z,64.70
2017-03-21T11:50:18.793Z,64.70
2017-03-21T11:51:17.044Z,64.90
2017-03-21T11:52:15.308Z,64.80
2017-03-21T11:53:13.582Z,64.90
2017-03-21T11:54:11.869Z,65.30
2017-03-21T11:55:10.917Z,65.50
2017-03-21T11:56:09.166Z,65.40
2017-03-21T11:57:07.421Z,65.40
2017-03-21T11:58:05.649Z,65.50
2017-03-21T11:59:03.900Z,65.40
2017-03-21T12:00:02.159Z,65.60
2017-03-21T12:01:00.476Z,65.30
2017-03-21T12:01:59.442Z,65.50
2017-03-21T12:02:57.699Z,66.60
2017-03-21T12:03:55.957Z,66.20
2017-03-21T12:04:54.207Z,66.10
2017-03-21T12:05:52.469Z,65.70
2017-03-21T12:06:50.733Z,65.70
2017-03-21T12:07:49.001Z,66.10
2017-03-21T12:08:47.324Z,66.60
2017-03-21T12:09:45.617Z,66.70
2017-03-21T12:10:43.896Z,66.40
2017-03-21T12:11:42.169Z,65.80
2017-03-21T12:12:40.442Z,65.70
2017-03-21T12:13:38.869Z,65.50
2017-03-21T12:14:37.114Z,65.30
2017-03-21T12:15:35.389Z,66.10
2017-03-21T12:16:33.643Z,64.90
2017-03-21T12:17:32.473Z,64.90
2017-03-21T12:18:30.750Z,65.00
2017-03-21T12:19:29.003Z,65.00
2017-03-21T12:20:27.270Z,65.10
2017-03-21T12:21:25.528Z,65.30
2017-03-21T12:22:23.799Z,65.20
2017-03-21T12:23:22.797Z,64.90
2017-03-21T12:24:21.064Z,65.30
2017-03-21T12:25:19.332Z,68.90
2017-03-21T12:26:18.525Z,73.40
2017-03-21T12:27:16.763Z,76.30
2017-03-21T12:28:14.999Z,78.50
2017-03-21T12:29:13.266Z,79.60
2017-03-21T12:30:11.530Z,80.70
2017-03-21T12:31:09.773Z,82.40